Time;durP1;ratioP1;P1;durP2;ratioP2;P2;SDS_P1;SDS_P2;PMS_P1;PMS_P2;Temp;Humidity;BMP_temperature;BMP_pressure;BME280_temperature;BME280_humidity;BME280_pressure;Samples;Min_cycle;Max_cycle;Signal;HPM_P1;HPM_P2
2022/01/13 00:02:06;;;;;;;4.68;4.07;;;2.20;99.90;;;;;;5052896;28;20049;-89
2022/01/13 00:04:33;;;;;;;5.38;3.20;;;2.20;99.90;;;;;;5053867;28;20072;-89
2022/01/13 00:07:00;;;;;;;4.13;3.40;;;2.20;99.90;;;;;;5052768;28;20053;-89
2022/01/13 00:09:27;;;;;;;4.93;4.28;;;2.20;99.90;;;;;;5052957;28;20048;-89
2022/01/13 00:11:56;;;;;;;4.78;3.00;;;2.20;99.90;;;;;;5053863;28;20059;-89
2022/01/13 00:14:37;;;;;;;4.22;3.80;;;2.20;99.90;;;;;;5052781;28;20052;-90
2022/01/13 00:17:26;;;;;;;4.10;3.70;;;2.20;99.90;;;;;;5052651;28;20053;-90
2022/01/13 00:20:29;;;;;;;5.05;4.55;;;2.20;99.90;;;;;;5052630;28;20051;-89
2022/01/13 00:25:53;;;;;;;4.63;4.10;;;2.30;99.90;;;;;;5054484;28;20045;-90
2022/01/13 00:28:22;;;;;;;4.25;3.88;;;2.30;99.90;;;;;;5064964;28;20151;-90
2022/01/13 00:30:53;;;;;;;6.85;3.95;;;2.20;99.90;;;;;;5055696;28;20077;-90
2022/01/13 00:33:24;;;;;;;4.53;4.13;;;2.20;99.90;;;;;;5053566;28;20053;-90
2022/01/13 00:35:55;;;;;;;4.10;3.35;;;2.20;99.90;;;;;;5053037;28;20045;-90
2022/01/13 00:38:22;;;;;;;5.35;3.83;;;2.20;99.90;;;;;;5053378;28;20053;-89
2022/01/13 00:40:49;;;;;;;4.30;3.90;;;2.10;99.90;;;;;;5052263;28;20049;-90
2022/01/13 00:43:16;;;;;;;6.50;3.80;;;2.20;99.90;;;;;;5052253;28;20056;-89
2022/01/13 00:45:43;;;;;;;4.07;3.67;;;2.10;99.90;;;;;;5052042;28;20563;-90
2022/01/13 00:48:10;;;;;;;4.80;3.85;;;2.10;99.90;;;;;;5052348;28;20084;-90
2022/01/13 00:50:37;;;;;;;4.43;4.03;;;2.10;99.90;;;;;;5053250;28;20405;-89
2022/01/13 00:53:04;;;;;;;4.85;4.03;;;2.10;99.90;;;;;;5052160;28;20044;-89
2022/01/13 00:55:47;;;;;;;4.10;3.70;;;2.00;99.90;;;;;;5052005;28;20081;-90
2022/01/13 00:58:15;;;;;;;4.32;3.53;;;2.00;99.90;;;;;;5052354;28;20128;-89
2022/01/13 01:00:42;;;;;;;4.47;4.07;;;1.90;99.90;;;;;;5052195;28;20099;-90
2022/01/13 01:03:10;;;;;;;5.07;4.00;;;1.90;99.90;;;;;;5052950;28;20049;-90
2022/01/13 01:05:37;;;;;;;5.05;4.15;;;1.80;99.90;;;;;;5052572;28;20052;-88
2022/01/13 01:08:06;;;;;;;6.28;4.38;;;1.70;99.90;;;;;;5056161;28;20048;-88
2022/01/13 01:10:33;;;;;;;4.30;3.85;;;1.70;99.90;;;;;;5056297;28;20481;-89
2022/01/13 01:13:10;;;;;;;5.00;4.22;;;1.70;99.90;;;;;;5056384;28;20045;-89
2022/01/13 01:15:40;;;;;;;4.78;4.20;;;1.60;99.90;;;;;;5056286;28;20052;-88
2022/01/13 01:18:18;;;;;;;4.88;4.10;;;1.60;99.90;;;;;;5056055;28;20151;-88
2022/01/13 01:21:03;;;;;;;4.75;4.03;;;1.50;99.90;;;;;;5057161;28;20052;-89
2022/01/13 01:23:34;;;;;;;4.05;3.65;;;1.30;99.90;;;;;;5056143;28;20057;-88
2022/01/13 01:26:08;;;;;;;3.53;3.22;;;1.20;99.90;;;;;;5056014;28;20496;-88
2022/01/13 01:28:45;;;;;;;3.85;3.55;;;1.10;99.90;;;;;;5056301;28;20045;-88
2022/01/13 01:31:13;;;;;;;4.07;3.67;;;1.00;99.90;;;;;;5056873;28;20053;-88
2022/01/13 01:33:47;;;;;;;4.47;4.07;;;0.90;99.90;;;;;;5055751;28;20048;-88
2022/01/13 01:36:15;;;;;;;4.72;4.20;;;0.80;99.90;;;;;;5056899;28;20405;-88
2022/01/13 01:38:46;;;;;;;4.93;4.40;;;0.80;99.90;;;;;;5055778;28;20493;-88
2022/01/13 01:41:13;;;;;;;8.02;4.63;;;0.70;99.90;;;;;;5056476;28;20041;-88
2022/01/13 01:43:40;;;;;;;5.15;4.60;;;0.60;99.90;;;;;;5073643;28;20148;-88
2022/01/13 01:46:07;;;;;;;5.57;4.38;;;0.50;99.90;;;;;;5058059;28;20052;-88
2022/01/13 01:48:36;;;;;;;8.60;5.65;;;0.40;99.90;;;;;;5056695;28;20045;-88
2022/01/13 01:51:04;;;;;;;4.88;4.32;;;0.40;99.90;;;;;;5055631;28;20115;-88
2022/01/13 01:53:31;;;;;;;5.95;5.00;;;0.30;99.90;;;;;;5055375;28;20128;-88
2022/01/13 01:55:58;;;;;;;9.25;5.63;;;0.20;99.90;;;;;;5056671;28;20049;-88
2022/01/13 01:58:27;;;;;;;6.70;5.10;;;0.10;99.90;;;;;;5055209;28;20067;-88
2022/01/13 02:00:55;;;;;;;6.05;5.10;;;0.00;99.90;;;;;;5055645;28;20086;-87
2022/01/13 02:03:24;;;;;;;5.75;4.70;;;-0.30;99.90;;;;;;5055336;28;20045;-88
2022/01/13 02:05:52;;;;;;;7.75;5.90;;;-0.30;99.90;;;;;;5055439;28;20087;-88
2022/01/13 02:08:19;;;;;;;8.80;5.47;;;-0.40;99.90;;;;;;5056319;28;20061;-88
2022/01/13 02:10:46;;;;;;;7.68;5.07;;;-0.50;99.90;;;;;;5055141;28;20047;-87
2022/01/13 02:13:19;;;;;;;8.02;5.80;;;-0.60;99.90;;;;;;5055531;28;20083;-88
2022/01/13 02:16:01;;;;;;;10.43;5.25;;;-0.60;99.90;;;;;;5055095;28;20049;-88
2022/01/13 02:18:29;;;;;;;6.97;5.45;;;-0.70;99.90;;;;;;5055976;28;20052;-88
2022/01/13 02:20:56;;;;;;;10.20;5.85;;;-0.80;99.90;;;;;;5055884;28;20051;-89
2022/01/13 02:23:37;;;;;;;12.02;6.82;;;-0.80;99.90;;;;;;5054811;28;20128;-88
2022/01/13 02:26:07;;;;;;;7.30;5.38;;;-0.80;99.90;;;;;;5052154;28;20051;-88
2022/01/13 02:28:34;;;;;;;8.15;6.25;;;-0.80;99.90;;;;;;5054682;28;20485;-88
2022/01/13 02:31:02;;;;;;;8.65;6.63;;;-0.90;99.90;;;;;;5055785;28;20499;-88
2022/01/13 02:33:29;;;;;;;11.10;6.68;;;-0.90;99.90;;;;;;5054683;28;20053;-89
2022/01/13 02:35:56;;;;;;;13.88;7.72;;;-0.90;99.90;;;;;;5055686;28;20059;-88
2022/01/13 02:38:23;;;;;;;13.82;8.75;;;-0.90;99.90;;;;;;5054562;28;20052;-88
2022/01/13 02:40:57;;;;;;;13.40;8.35;;;-0.90;99.90;;;;;;5054542;28;20051;-89
2022/01/13 02:43:26;;;;;;;12.60;7.95;;;-0.90;99.90;;;;;;5054530;28;20049;-89
2022/01/13 02:48:40;;;;;;;9.90;7.57;;;-0.80;99.90;;;;;;5054584;28;20052;-90
2022/01/13 02:51:07;;;;;;;9.88;6.75;;;-0.60;99.90;;;;;;5053879;28;20056;-89
2022/01/13 02:53:34;;;;;;;8.93;7.03;;;-0.60;99.90;;;;;;5054803;28;20045;-88
2022/01/13 02:56:04;;;;;;;8.60;7.20;;;-0.50;99.90;;;;;;5054516;28;20053;-89
2022/01/13 02:58:32;;;;;;;9.00;6.30;;;-0.40;99.90;;;;;;5071796;28;20085;-89
2022/01/13 03:01:00;;;;;;;10.27;5.97;;;-0.40;99.90;;;;;;5055597;28;20111;-89
2022/01/13 03:03:29;;;;;;;10.27;6.50;;;-0.40;99.90;;;;;;5054518;28;20078;-89
2022/01/13 03:05:56;;;;;;;8.45;6.15;;;-0.40;99.90;;;;;;5054270;28;20055;-89
2022/01/13 03:08:23;;;;;;;7.85;6.18;;;-0.40;99.90;;;;;;5053715;28;20049;-89
2022/01/13 03:10:49;;;;;;;10.57;7.20;;;-0.50;99.90;;;;;;5053999;28;20128;-89
2022/01/13 03:13:18;;;;;;;7.68;6.38;;;-0.40;99.90;;;;;;5053857;28;20048;-89
2022/01/13 03:15:45;;;;;;;8.70;6.57;;;-0.20;99.90;;;;;;5053737;28;20053;-89
2022/01/13 03:18:12;;;;;;;9.38;7.10;;;-0.20;99.90;;;;;;5055227;28;20045;-90
2022/01/13 03:20:38;;;;;;;7.40;5.63;;;-0.20;99.90;;;;;;5055049;28;20041;-89
2022/01/13 03:23:06;;;;;;;8.10;6.00;;;-0.20;99.90;;;;;;5053677;28;20438;-89
2022/01/13 03:25:32;;;;;;;8.20;6.45;;;-0.10;99.90;;;;;;5054518;28;20049;-89
2022/01/13 03:28:08;;;;;;;7.30;5.53;;;-0.20;99.90;;;;;;5053465;28;20443;-90
2022/01/13 03:30:34;;;;;;;6.65;5.80;;;-0.30;99.90;;;;;;5052998;28;20037;-89
2022/01/13 03:33:02;;;;;;;7.20;5.93;;;-0.30;99.90;;;;;;5053567;28;20140;-89
2022/01/13 03:35:29;;;;;;;6.75;5.20;;;-0.30;99.90;;;;;;5053716;28;20435;-89
2022/01/13 03:37:57;;;;;;;7.10;5.07;;;-0.40;99.90;;;;;;5053646;28;20063;-89
2022/01/13 03:40:26;;;;;;;9.43;6.45;;;-0.40;99.90;;;;;;5053385;28;20067;-89
2022/01/13 03:42:53;;;;;;;7.68;5.53;;;-0.60;99.90;;;;;;5053270;28;20053;-89
2022/01/13 03:45:21;;;;;;;7.35;6.10;;;-0.70;99.90;;;;;;5053332;28;20133;-89
2022/01/13 03:47:47;;;;;;;8.00;6.18;;;-0.70;99.90;;;;;;5053327;28;20049;-89
2022/01/13 03:50:14;;;;;;;11.07;5.78;;;-0.80;99.90;;;;;;5053216;28;20049;-90
2022/01/13 03:53:01;;;;;;;7.65;6.35;;;-0.80;99.90;;;;;;5053976;28;20060;-90
2022/01/13 03:55:39;;;;;;;7.38;6.07;;;-1.00;99.90;;;;;;5053890;28;20493;-89
2022/01/13 03:58:06;;;;;;;7.72;6.15;;;-1.00;99.90;;;;;;5053125;28;20056;-90
2022/01/13 04:01:11;;;;;;;11.43;7.03;;;-1.10;99.90;;;;;;5053498;28;20045;-89
2022/01/13 04:03:38;;;;;;;10.52;7.25;;;-1.20;99.90;;;;;;5053400;28;20140;-90
2022/01/13 04:06:12;;;;;;;12.90;7.40;;;-1.30;99.90;;;;;;5053217;28;20075;-90
2022/01/13 04:08:40;;;;;;;8.85;6.95;;;-1.40;99.90;;;;;;5052652;28;20049;-91
2022/01/13 04:11:06;;;;;;;7.57;6.13;;;-1.40;99.90;;;;;;5055130;28;20040;-91
2022/01/13 04:16:13;;;;;;;13.45;6.88;;;-1.50;99.90;;;;;;5057961;28;20063;-91
2022/01/13 04:18:40;;;;;;;10.32;6.18;;;-1.50;99.90;;;;;;5052898;28;20055;-91
2022/01/13 04:21:07;;;;;;;10.90;6.47;;;-1.60;99.90;;;;;;5053564;28;20045;-92
2022/01/13 04:23:34;;;;;;;10.88;6.55;;;-1.60;99.90;;;;;;5053417;28;20063;-92
2022/01/13 04:26:05;;;;;;;11.68;6.97;;;-1.70;99.90;;;;;;5053202;28;20044;-91
2022/01/13 04:28:36;;;;;;;13.43;7.72;;;-1.70;99.90;;;;;;5052723;28;20544;-92
2022/01/13 04:31:03;;;;;;;9.38;6.22;;;-1.80;99.90;;;;;;5052985;28;20131;-92
2022/01/13 04:33:32;;;;;;;10.50;6.55;;;-1.90;99.90;;;;;;5053412;28;20048;-92
2022/01/13 04:36:00;;;;;;;12.43;7.07;;;-1.80;99.90;;;;;;5053140;28;20049;-92
2022/01/13 04:38:27;;;;;;;12.88;7.97;;;-1.80;99.90;;;;;;5053411;28;20063;-92
2022/01/13 04:40:59;;;;;;;13.05;7.55;;;-1.80;99.90;;;;;;5052609;28;20264;-92
2022/01/13 04:43:30;;;;;;;10.93;7.80;;;-1.70;99.90;;;;;;5052725;28;20139;-93
2022/01/13 04:45:57;;;;;;;15.13;7.80;;;-1.80;99.90;;;;;;5052771;28;20049;-92
2022/01/13 04:48:24;;;;;;;13.60;7.82;;;-1.80;99.90;;;;;;5053159;28;20049;-92
2022/01/13 04:50:51;;;;;;;16.35;9.05;;;-1.70;99.90;;;;;;5053262;28;20114;-93
2022/01/13 04:53:18;;;;;;;13.02;8.25;;;-1.70;99.90;;;;;;5054047;28;20073;-93
2022/01/13 04:55:53;;;;;;;14.57;9.27;;;-1.70;99.90;;;;;;5052551;28;20537;-93
2022/01/13 04:58:22;;;;;;;13.00;8.00;;;-1.80;99.90;;;;;;5052887;28;20140;-93
2022/01/13 05:00:49;;;;;;;13.45;8.38;;;-1.90;99.90;;;;;;5052964;28;20054;-93
2022/01/13 05:03:16;;;;;;;11.45;7.90;;;-1.80;99.90;;;;;;5052791;28;20052;-93
2022/01/13 05:05:43;;;;;;;15.18;8.70;;;-1.70;99.90;;;;;;5052296;28;20124;-93
2022/01/13 05:08:10;;;;;;;11.77;8.23;;;-1.60;99.90;;;;;;5051809;28;20135;-93
2022/01/13 05:10:36;;;;;;;15.77;8.73;;;-1.70;99.90;;;;;;5052563;28;20048;-94
2022/01/13 05:13:08;;;;;;;16.05;9.32;;;-1.70;99.90;;;;;;5052545;28;20060;-93
2022/01/13 05:15:36;;;;;;;20.55;9.80;;;-1.60;99.90;;;;;;5052730;28;20132;-92
2022/01/13 05:21:04;;;;;;;19.52;10.88;;;-1.30;99.90;;;;;;5053286;28;20052;-93
2022/01/13 05:23:31;;;;;;;21.33;11.20;;;-1.20;99.90;;;;;;5052714;28;20437;-93
2022/01/13 05:25:58;;;;;;;27.23;11.90;;;-1.00;99.90;;;;;;5057114;28;20104;-93
2022/01/13 05:28:25;;;;;;;20.17;12.43;;;-0.90;99.90;;;;;;5074395;28;20071;-92
2022/01/13 05:30:52;;;;;;;21.98;12.48;;;-0.90;99.90;;;;;;5059020;28;20552;-93
2022/01/13 05:33:19;;;;;;;22.55;12.25;;;-0.70;99.90;;;;;;5052372;28;20391;-93
2022/01/13 05:35:45;;;;;;;27.60;16.40;;;-0.80;99.90;;;;;;5051784;28;20051;-93
2022/01/13 05:38:12;;;;;;;27.00;12.00;;;-0.70;99.90;;;;;;5052146;28;20136;-93
2022/01/13 05:40:39;;;;;;;24.65;15.13;;;-0.60;99.90;;;;;;5051948;28;20553;-93
2022/01/13 05:43:06;;;;;;;23.67;15.23;;;-0.50;99.90;;;;;;5051508;28;20466;-92
2022/01/13 05:45:38;;;;;;;26.27;17.08;;;-0.30;99.90;;;;;;5051687;28;20049;-93
2022/01/13 05:48:06;;;;;;;24.05;15.07;;;-0.20;99.90;;;;;;5051887;28;20091;-93
2022/01/13 05:50:33;;;;;;;18.48;12.02;;;0.00;99.90;;;;;;5051382;28;20140;-94
2022/01/13 05:53:00;;;;;;;16.02;13.38;;;0.10;99.90;;;;;;5053146;28;20057;-93
2022/01/13 05:55:27;;;;;;;15.85;11.27;;;0.20;99.90;;;;;;5055352;28;20049;-93
2022/01/13 05:57:54;;;;;;;12.77;9.88;;;0.30;99.90;;;;;;5055428;28;20386;-93
2022/01/13 06:00:22;;;;;;;14.27;9.15;;;0.40;99.90;;;;;;5055539;28;20127;-92
2022/01/13 06:02:50;;;;;;;14.48;8.77;;;0.50;99.90;;;;;;5055795;28;20481;-91
2022/01/13 06:05:18;;;;;;;13.55;8.93;;;0.50;99.90;;;;;;5055390;28;20470;-92
2022/01/13 06:07:45;;;;;;;11.60;7.53;;;0.50;99.90;;;;;;5055355;28;20049;-92
2022/01/13 06:10:18;;;;;;;15.15;8.80;;;0.50;99.90;;;;;;5055451;28;20055;-92
2022/01/13 06:12:50;;;;;;;10.30;8.88;;;0.50;99.90;;;;;;5055295;28;20555;-92
2022/01/13 06:15:22;;;;;;;10.55;7.78;;;0.60;99.90;;;;;;5055304;28;20135;-93
2022/01/13 06:17:51;;;;;;;10.65;7.68;;;0.70;99.90;;;;;;5055333;28;20172;-92
2022/01/13 06:20:19;;;;;;;14.02;9.85;;;0.80;99.90;;;;;;5054816;28;20436;-92
2022/01/13 06:22:48;;;;;;;9.07;7.03;;;0.90;99.90;;;;;;5054659;28;20131;-92
2022/01/13 06:25:16;;;;;;;11.65;7.38;;;0.90;99.90;;;;;;5054833;28;20053;-92
2022/01/13 06:27:43;;;;;;;7.28;5.65;;;1.00;99.90;;;;;;5055058;28;20115;-91
2022/01/13 06:30:30;;;;;;;9.32;6.60;;;1.10;99.90;;;;;;5055195;28;20059;-92
2022/01/13 06:32:57;;;;;;;10.18;9.25;;;1.10;99.90;;;;;;5054669;28;20144;-89
2022/01/13 06:35:25;;;;;;;7.80;7.00;;;1.20;99.90;;;;;;5054688;28;20049;-91
2022/01/13 06:37:51;;;;;;;6.90;5.70;;;1.20;99.90;;;;;;5054794;28;20063;-91
2022/01/13 06:40:18;;;;;;;10.63;7.13;;;1.20;99.90;;;;;;5055157;28;20041;-90
2022/01/13 06:42:45;;;;;;;17.73;10.50;;;1.20;99.90;;;;;;5072022;28;20121;-91
2022/01/13 06:45:12;;;;;;;22.55;12.05;;;1.00;99.90;;;;;;5062576;28;20124;-91
2022/01/13 06:47:39;;;;;;;15.10;8.80;;;1.00;99.90;;;;;;5054567;28;20132;-91
2022/01/13 06:50:07;;;;;;;67.38;37.42;;;0.90;99.90;;;;;;5054573;28;20413;-91
2022/01/13 06:52:34;;;;;;;31.58;18.45;;;0.90;99.90;;;;;;5054490;28;20489;-91
2022/01/13 06:55:01;;;;;;;111.80;56.00;;;0.80;99.90;;;;;;5054208;28;20045;-91
2022/01/13 06:57:30;;;;;;;20.65;10.73;;;0.70;99.90;;;;;;5054851;28;20444;-91
2022/01/13 06:59:57;;;;;;;19.17;7.90;;;0.60;99.90;;;;;;5056019;28;20420;-91
2022/01/13 07:02:25;;;;;;;9.32;6.15;;;0.70;99.90;;;;;;5064185;28;20049;-91
2022/01/13 07:04:52;;;;;;;9.05;6.45;;;0.80;99.90;;;;;;5065292;28;20045;-91
2022/01/13 07:07:19;;;;;;;10.52;7.40;;;0.80;99.90;;;;;;5065617;28;20116;-91
2022/01/13 07:09:46;;;;;;;9.43;6.68;;;0.90;99.90;;;;;;5065526;28;20059;-92
2022/01/13 07:12:13;;;;;;;8.20;7.18;;;0.90;99.90;;;;;;5064281;28;20128;-90
2022/01/13 07:14:39;;;;;;;9.68;7.32;;;1.10;99.90;;;;;;5063150;28;20131;-91
2022/01/13 07:17:06;;;;;;;8.38;5.93;;;1.20;99.90;;;;;;5061379;28;20135;-91
2022/01/13 07:19:33;;;;;;;7.45;4.82;;;1.30;99.90;;;;;;5062574;28;20053;-93
2022/01/13 07:22:00;;;;;;;5.75;5.00;;;1.40;99.90;;;;;;5055723;28;20473;-92
2022/01/13 07:24:26;;;;;;;7.15;5.90;;;1.50;99.90;;;;;;5048324;28;20112;-91
2022/01/13 07:26:53;;;;;;;6.20;5.28;;;1.60;99.90;;;;;;5046739;28;20108;-92
2022/01/13 07:29:20;;;;;;;7.25;5.47;;;1.70;99.90;;;;;;5048937;28;20175;-91
2022/01/13 07:31:47;;;;;;;11.15;6.38;;;1.70;99.90;;;;;;5049071;28;20121;-91
2022/01/13 07:34:14;;;;;;;6.65;4.85;;;1.80;99.90;;;;;;5050841;28;20503;-91
2022/01/13 07:36:41;;;;;;;5.95;4.43;;;1.80;99.90;;;;;;5052659;28;20121;-90
2022/01/13 07:39:08;;;;;;;5.13;4.50;;;1.90;99.90;;;;;;5051732;28;20049;-90
2022/01/13 07:41:37;;;;;;;5.68;4.20;;;2.00;99.90;;;;;;5051214;28;20049;-90
2022/01/13 07:44:05;;;;;;;6.45;4.43;;;2.00;99.90;;;;;;5050142;28;20148;-90
2022/01/13 07:46:32;;;;;;;8.40;5.45;;;2.10;99.90;;;;;;5052554;28;20057;-90
2022/01/13 07:48:59;;;;;;;8.07;5.00;;;2.10;99.90;;;;;;5042405;28;20073;-90
2022/01/13 07:51:26;;;;;;;5.57;4.05;;;2.20;99.90;;;;;;5041804;28;20141;-90
2022/01/13 07:53:53;;;;;;;5.63;4.05;;;2.30;99.90;;;;;;5040692;28;20067;-90
2022/01/13 07:56:19;;;;;;;8.50;4.78;;;2.40;99.90;;;;;;5040726;28;20400;-90
2022/01/13 07:58:46;;;;;;;6.13;4.20;;;2.40;99.90;;;;;;5052286;28;20072;-90
2022/01/13 08:01:13;;;;;;;5.13;4.40;;;2.50;99.90;;;;;;5038733;28;20049;-90
2022/01/13 08:03:40;;;;;;;5.00;4.38;;;2.50;99.90;;;;;;5034201;28;20046;-92
2022/01/13 08:06:08;;;;;;;4.40;4.00;;;2.60;99.90;;;;;;5032981;28;20406;-90
2022/01/13 08:08:35;;;;;;;5.20;4.70;;;2.50;99.90;;;;;;5033004;28;20117;-90
2022/01/13 08:11:04;;;;;;;8.85;5.75;;;2.60;99.90;;;;;;5032516;28;20045;-90
2022/01/13 08:13:31;;;;;;;6.65;5.68;;;2.60;99.90;;;;;;5032951;28;20053;-90
2022/01/13 08:16:01;;;;;;;5.75;4.57;;;2.70;99.90;;;;;;5032630;28;20545;-90
2022/01/13 08:21:14;;;;;;;10.68;7.30;;;2.80;99.90;;;;;;5033610;28;20119;-90
2022/01/13 08:23:41;;;;;;;5.88;5.25;;;2.90;99.90;;;;;;5032433;28;20049;-91
2022/01/13 08:26:08;;;;;;;7.05;5.60;;;2.90;99.90;;;;;;5031529;28;20050;-90
2022/01/13 08:28:35;;;;;;;7.90;5.47;;;3.00;99.90;;;;;;5032276;28;20055;-89
2022/01/13 08:31:03;;;;;;;9.48;6.72;;;3.00;99.90;;;;;;5032561;28;20079;-89
2022/01/13 08:33:31;;;;;;;4.60;4.20;;;3.00;99.90;;;;;;5033014;28;20172;-89
2022/01/13 08:36:01;;;;;;;4.40;4.00;;;3.10;99.90;;;;;;5032402;28;20100;-90
2022/01/13 08:38:28;;;;;;;4.00;3.70;;;3.30;99.90;;;;;;5032648;28;20049;-89
2022/01/13 08:40:57;;;;;;;3.75;3.45;;;3.40;99.90;;;;;;5032792;28;20128;-89
2022/01/13 08:43:26;;;;;;;4.38;4.05;;;3.50;99.90;;;;;;5032682;28;20223;-90
2022/01/13 08:45:54;;;;;;;11.00;6.07;;;3.60;99.90;;;;;;5032340;28;20599;-89
2022/01/13 08:48:21;;;;;;;9.43;5.93;;;3.80;99.90;;;;;;5032472;28;20478;-90
2022/01/13 08:50:48;;;;;;;4.00;3.67;;;3.90;99.90;;;;;;5032280;28;20060;-89
2022/01/13 08:53:16;;;;;;;4.68;4.05;;;3.90;99.90;;;;;;5032256;28;20065;-89
2022/01/13 08:55:44;;;;;;;5.50;3.97;;;4.00;99.90;;;;;;5032420;28;20045;-90
2022/01/13 08:58:11;;;;;;;4.63;4.05;;;4.00;99.90;;;;;;5032074;28;20559;-89
2022/01/13 09:00:38;;;;;;;4.18;3.78;;;4.00;99.90;;;;;;5032407;28;20057;-89
2022/01/13 09:03:07;;;;;;;3.92;3.53;;;4.00;99.90;;;;;;5033329;28;20107;-89
2022/01/13 09:05:37;;;;;;;3.90;3.58;;;4.00;99.90;;;;;;5032306;28;20049;-90
2022/01/13 09:08:07;;;;;;;5.53;3.97;;;4.10;99.90;;;;;;5032218;28;20052;-89
2022/01/13 09:10:34;;;;;;;4.35;3.95;;;4.10;99.90;;;;;;5032334;28;20504;-89
2022/01/13 09:13:01;;;;;;;4.18;3.83;;;4.10;99.90;;;;;;5044584;28;20037;-89
2022/01/13 09:15:39;;;;;;;4.95;3.55;;;4.20;99.90;;;;;;5047652;28;20057;-89
2022/01/13 09:18:19;;;;;;;4.07;3.60;;;4.20;99.90;;;;;;5042293;28;20073;-90
2022/01/13 09:20:46;;;;;;;3.53;3.28;;;4.30;99.90;;;;;;5042507;28;20063;-88
2022/01/13 09:23:13;;;;;;;4.78;3.38;;;4.60;99.90;;;;;;5043527;28;20180;-88
2022/01/13 09:25:40;;;;;;;3.30;3.00;;;4.80;99.90;;;;;;5039657;28;20045;-88
2022/01/13 09:28:08;;;;;;;3.85;3.53;;;4.90;99.90;;;;;;5037156;28;20512;-87
2022/01/13 09:30:36;;;;;;;4.05;3.65;;;5.10;99.90;;;;;;5036347;28;20049;-89
2022/01/13 09:33:03;;;;;;;3.42;3.13;;;5.10;99.90;;;;;;5035822;28;20041;-88
2022/01/13 09:35:30;;;;;;;3.70;3.40;;;5.20;99.90;;;;;;5036037;28;20045;-88
2022/01/13 09:37:57;;;;;;;3.95;3.35;;;5.30;99.90;;;;;;5035718;28;20056;-89
2022/01/13 09:40:27;;;;;;;3.25;3.03;;;5.50;99.90;;;;;;5035492;28;20091;-89
2022/01/13 09:42:54;;;;;;;3.85;3.47;;;5.60;99.90;;;;;;5035883;28;20072;-89
2022/01/13 09:45:22;;;;;;;3.83;3.00;;;5.50;99.90;;;;;;5035350;28;20072;-88
2022/01/13 09:47:50;;;;;;;3.72;3.42;;;5.40;99.90;;;;;;5036350;28;20052;-89
2022/01/13 09:50:22;;;;;;;;;;;5.50;99.90;;;;;;5035974;28;20057;-90
2022/01/13 09:52:49;;;;;;;3.30;3.00;;;5.50;99.90;;;;;;5035482;28;19921;-88
2022/01/13 09:55:16;;;;;;;5.43;3.45;;;5.50;99.90;;;;;;5036277;28;20064;-89
2022/01/13 09:57:46;;;;;;;3.63;3.33;;;5.40;99.90;;;;;;5035493;28;20071;-89
2022/01/13 10:00:16;;;;;;;3.50;3.08;;;5.20;99.90;;;;;;5035459;28;20119;-89
2022/01/13 10:02:43;;;;;;;4.80;3.80;;;5.10;99.90;;;;;;5035374;28;20081;-88
2022/01/13 10:05:10;;;;;;;4.00;3.60;;;4.90;99.90;;;;;;5035973;28;20468;-88
2022/01/13 10:07:43;;;;;;;5.03;3.47;;;4.80;99.90;;;;;;5035175;28;20048;-89
2022/01/13 10:10:24;;;;;;;4.80;3.35;;;4.70;99.90;;;;;;5036156;28;20497;-89
2022/01/13 10:13:04;;;;;;;4.40;4.00;;;4.70;99.90;;;;;;5034533;28;20045;-89
2022/01/13 10:18:44;;;;;;;5.78;3.70;;;4.70;99.90;;;;;;5036304;28;20055;-90
2022/01/13 10:21:14;;;;;;;4.45;4.05;;;4.70;99.90;;;;;;5034842;28;20077;-88
2022/01/13 10:24:01;;;;;;;4.50;3.90;;;4.80;99.90;;;;;;5034964;28;20109;-89
2022/01/13 10:26:30;;;;;;;4.90;3.53;;;4.90;99.90;;;;;;5036003;28;20053;-89
2022/01/13 10:28:57;;;;;;;3.78;3.28;;;5.00;99.90;;;;;;5053375;28;20064;-89
2022/01/13 10:31:42;;;;;;;5.82;3.35;;;5.10;99.90;;;;;;5043335;28;20140;-89
2022/01/13 10:34:22;;;;;;;3.90;3.60;;;5.20;99.90;;;;;;5035870;28;20045;-89
2022/01/13 10:36:59;;;;;;;4.10;3.70;;;5.40;99.90;;;;;;5034820;28;20045;-89
2022/01/13 10:39:44;;;;;;;3.90;3.50;;;5.50;99.90;;;;;;5033619;28;20077;-88
2022/01/13 10:42:21;;;;;;;6.18;3.75;;;5.70;99.90;;;;;;5034974;28;20072;-88
2022/01/13 10:44:55;;;;;;;5.90;3.97;;;5.80;99.90;;;;;;5035451;28;20053;-89
2022/01/13 10:47:21;;;;;;;5.53;3.70;;;6.10;99.90;;;;;;5034168;28;20055;-88
2022/01/13 10:49:50;;;;;;;7.00;4.32;;;6.20;99.90;;;;;;5034445;28;20056;-88
2022/01/13 10:52:26;;;;;;;4.43;3.67;;;6.40;99.90;;;;;;5035384;28;20060;-89
2022/01/13 10:55:00;;;;;;;6.70;3.80;;;6.50;99.90;;;;;;5034409;28;20469;-88
2022/01/13 10:57:27;;;;;;;5.70;3.63;;;6.70;99.90;;;;;;5034684;28;20482;-89
2022/01/13 10:59:54;;;;;;;3.80;3.50;;;6.70;99.90;;;;;;5034185;28;20103;-88
2022/01/13 11:02:23;;;;;;;3.80;3.33;;;7.30;99.90;;;;;;5035560;28;20045;-89
2022/01/13 11:04:51;;;;;;;4.05;3.65;;;7.90;99.90;;;;;;5035222;28;20050;-88
2022/01/13 11:07:24;;;;;;;3.20;2.92;;;8.50;99.90;;;;;;5035159;28;20527;-88
2022/01/13 11:09:59;;;;;;;4.30;3.30;;;9.50;99.90;;;;;;5033697;28;20060;-89
2022/01/13 11:12:39;;;;;;;6.20;3.58;;;10.10;99.90;;;;;;5034966;28;20041;-87
2022/01/13 11:15:08;;;;;;;4.20;3.17;;;10.20;99.90;;;;;;5033890;28;20143;-89
2022/01/13 11:17:38;;;;;;;8.68;4.55;;;10.40;99.90;;;;;;5033699;28;20413;-89
2022/01/13 11:20:10;;;;;;;6.07;4.55;;;10.40;99.90;;;;;;5034973;28;20152;-89
2022/01/13 11:22:39;;;;;;;7.07;4.30;;;10.20;99.90;;;;;;5034515;28;20053;-89
2022/01/13 11:25:09;;;;;;;4.50;4.10;;;10.00;99.90;;;;;;5034632;28;20053;-89
2022/01/13 11:27:37;;;;;;;5.10;3.38;;;10.30;99.90;;;;;;5034633;28;20475;-89
2022/01/13 11:30:11;;;;;;;4.35;3.60;;;10.80;99.90;;;;;;5034297;28;20057;-90
2022/01/13 11:32:40;;;;;;;5.72;3.42;;;11.10;99.90;;;;;;5033670;28;20045;-90
2022/01/13 11:35:10;;;;;;;5.78;3.90;;;11.00;99.90;;;;;;5033098;28;20414;-89
2022/01/13 11:37:39;;;;;;;4.47;3.80;;;10.70;99.90;;;;;;5033339;28;20080;-90
2022/01/13 11:40:27;;;;;;;4.20;3.80;;;10.80;99.90;;;;;;5033813;28;20453;-89
2022/01/13 11:42:58;;;;;;;5.45;3.67;;;11.40;99.90;;;;;;5041534;28;20068;-89
2022/01/13 11:45:26;;;;;;;5.47;3.72;;;12.20;99.90;;;;;;5049407;28;20069;-89
2022/01/13 11:48:16;;;;;;;4.05;3.75;;;12.00;99.10;;;;;;5033852;28;20100;-88
2022/01/13 11:50:51;;;;;;;4.53;4.13;;;12.40;98.30;;;;;;5032641;28;20045;-89
2022/01/13 11:53:26;;;;;;;4.55;3.80;;;12.00;98.70;;;;;;5033233;28;20504;-89
2022/01/13 11:55:57;;;;;;;5.78;4.28;;;11.90;98.80;;;;;;5033171;28;20057;-90
2022/01/13 11:58:46;;;;;;;3.65;3.35;;;11.40;99.00;;;;;;5033332;28;20045;-89
2022/01/13 12:01:21;;;;;;;4.50;4.10;;;10.80;99.90;;;;;;5033818;28;20547;-92
2022/01/13 12:04:04;;;;;;;5.88;4.72;;;10.30;99.90;;;;;;5034071;28;20058;-90
2022/01/13 12:06:51;;;;;;;7.75;5.45;;;9.50;99.90;;;;;;5033997;28;20049;-89
2022/01/13 12:09:21;;;;;;;6.80;5.50;;;9.10;99.90;;;;;;5031902;28;20098;-90
2022/01/13 12:11:55;;;;;;;5.15;4.40;;;8.60;99.90;;;;;;5033940;28;20060;-88
2022/01/13 12:14:25;;;;;;;5.88;4.65;;;8.50;99.90;;;;;;5033763;28;20061;-89
2022/01/13 12:16:58;;;;;;;5.20;4.57;;;8.40;99.90;;;;;;5033620;28;20060;-90
2022/01/13 12:19:39;;;;;;;6.88;5.07;;;8.30;99.90;;;;;;5032976;28;20067;-89
2022/01/13 12:22:11;;;;;;;6.38;5.18;;;8.20;99.90;;;;;;5033664;28;20049;-89
2022/01/13 12:24:56;;;;;;;5.82;4.65;;;8.00;99.90;;;;;;5032835;28;20063;-89
2022/01/13 12:27:26;;;;;;;5.63;4.65;;;7.90;99.90;;;;;;5033772;28;20108;-89
2022/01/13 12:30:17;;;;;;;7.72;4.30;;;7.80;99.90;;;;;;5032658;28;20132;-89
2022/01/13 12:32:50;;;;;;;7.25;4.78;;;7.80;99.90;;;;;;5032295;28;20056;-89
2022/01/13 12:35:39;;;;;;;7.55;5.35;;;7.70;99.90;;;;;;5032482;28;20053;-90
2022/01/13 12:38:17;;;;;;;4.68;4.28;;;7.70;99.90;;;;;;5033578;28;20053;-90
2022/01/13 12:41:00;;;;;;;4.97;4.43;;;7.70;99.90;;;;;;5032739;28;20478;-89
2022/01/13 12:46:03;;;;;;;5.07;4.30;;;8.00;99.90;;;;;;5048474;28;20051;-88
2022/01/13 12:48:31;;;;;;;7.80;4.75;;;8.20;99.90;;;;;;5052349;28;20398;-88
2022/01/13 12:50:59;;;;;;;12.73;5.72;;;8.30;99.90;;;;;;5052066;28;20049;-89
2022/01/13 12:53:29;;;;;;;5.30;4.80;;;8.40;99.90;;;;;;5052229;28;20045;-90
2022/01/13 12:56:11;;;;;;;5.45;4.60;;;8.30;99.90;;;;;;5053237;28;20053;-90
2022/01/13 12:58:43;;;;;;;4.75;4.25;;;8.20;99.90;;;;;;5065553;28;20092;-90
2022/01/13 13:01:17;;;;;;;5.35;4.47;;;8.20;99.90;;;;;;5062020;28;20124;-89
2022/01/13 13:03:57;;;;;;;;;;;8.00;99.90;;;;;;5051776;28;20076;-89
2022/01/13 13:06:23;;;;;;;11.90;4.97;;;7.80;99.90;;;;;;5052266;28;19983;-89
2022/01/13 13:08:50;;;;;;;6.55;5.18;;;7.70;99.90;;;;;;5052845;28;20053;-91
2022/01/13 13:11:17;;;;;;;8.32;5.22;;;7.50;99.90;;;;;;5052094;28;20056;-89
2022/01/13 13:13:51;;;;;;;5.28;4.78;;;7.30;99.90;;;;;;5052107;28;20109;-89
2022/01/13 13:16:18;;;;;;;7.03;5.22;;;7.10;99.90;;;;;;5051983;28;20049;-89
2022/01/13 13:18:47;;;;;;;7.35;5.05;;;7.00;99.90;;;;;;5053365;28;20128;-90
2022/01/13 13:21:14;;;;;;;5.95;5.18;;;7.00;99.90;;;;;;5051850;28;20053;-89
2022/01/13 13:23:44;;;;;;;7.03;5.40;;;6.90;99.90;;;;;;5052205;28;20132;-89
2022/01/13 13:26:17;;;;;;;5.90;5.30;;;6.90;99.90;;;;;;5052068;28;20072;-90